sensor_id;sensor_type;location;lat;lon;timestamp;P1;durP1;ratioP1;P2;durP2;ratioP2
48550;SDS011;34397;51.176;6.738;2022-10-16T00:02:34;4.72;;;2.08;;
48550;SDS011;34397;51.176;6.738;2022-10-16T00:05:06;5.68;;;2.55;;
48550;SDS011;34397;51.176;6.738;2022-10-16T00:07:38;4.60;;;2.55;;
48550;SDS011;34397;51.176;6.738;2022-10-16T00:10:10;7.47;;;2.50;;
48550;SDS011;34397;51.176;6.738;2022-10-16T00:12:43;5.25;;;2.38;;
48550;SDS011;34397;51.176;6.738;2022-10-16T00:17:46;4.72;;;2.20;;
48550;SDS011;34397;51.176;6.738;2022-10-16T00:20:18;4.47;;;2.28;;
48550;SDS011;34397;51.176;6.738;2022-10-16T00:22:50;4.45;;;2.30;;
48550;SDS011;34397;51.176;6.738;2022-10-16T00:25:22;3.95;;;2.20;;
48550;SDS011;34397;51.176;6.738;2022-10-16T00:27:55;5.85;;;2.80;;
48550;SDS011;34397;51.176;6.738;2022-10-16T00:33:00;4.27;;;2.17;;
48550;SDS011;34397;51.176;6.738;2022-10-16T00:35:32;4.13;;;2.00;;
48550;SDS011;34397;51.176;6.738;2022-10-16T00:38:04;7.22;;;2.50;;
48550;SDS011;34397;51.176;6.738;2022-10-16T00:40:35;5.53;;;2.03;;
48550;SDS011;34397;51.176;6.738;2022-10-16T00:43:13;3.60;;;1.92;;
48550;SDS011;34397;51.176;6.738;2022-10-16T00:46:05;4.57;;;2.38;;
48550;SDS011;34397;51.176;6.738;2022-10-16T00:48:43;4.63;;;2.10;;
48550;SDS011;34397;51.176;6.738;2022-10-16T00:51:21;7.28;;;1.83;;
48550;SDS011;34397;51.176;6.738;2022-10-16T00:53:57;4.47;;;2.20;;
48550;SDS011;34397;51.176;6.738;2022-10-16T00:59:06;4.47;;;2.22;;
48550;SDS011;34397;51.176;6.738;2022-10-16T01:01:45;6.30;;;2.03;;
48550;SDS011;34397;51.176;6.738;2022-10-16T01:04:17;4.70;;;1.80;;
48550;SDS011;34397;51.176;6.738;2022-10-16T01:06:51;4.33;;;1.77;;
48550;SDS011;34397;51.176;6.738;2022-10-16T01:09:34;5.13;;;2.08;;
48550;SDS011;34397;51.176;6.738;2022-10-16T01:12:19;3.80;;;2.00;;
48550;SDS011;34397;51.176;6.738;2022-10-16T01:15:02;4.68;;;1.90;;
48550;SDS011;34397;51.176;6.738;2022-10-16T01:17:48;3.42;;;1.88;;
48550;SDS011;34397;51.176;6.738;2022-10-16T01:20:26;3.40;;;1.70;;
48550;SDS011;34397;51.176;6.738;2022-10-16T01:23:09;4.18;;;2.05;;
48550;SDS011;34397;51.176;6.738;2022-10-16T01:28:57;3.53;;;1.83;;
48550;SDS011;34397;51.176;6.738;2022-10-16T01:31:35;4.57;;;2.17;;
48550;SDS011;34397;51.176;6.738;2022-10-16T01:34:12;5.13;;;2.30;;
48550;SDS011;34397;51.176;6.738;2022-10-16T01:36:50;4.65;;;2.60;;
48550;SDS011;34397;51.176;6.738;2022-10-16T01:39:28;2.95;;;1.80;;
48550;SDS011;34397;51.176;6.738;2022-10-16T01:42:04;6.47;;;2.38;;
48550;SDS011;34397;51.176;6.738;2022-10-16T01:44:42;4.28;;;2.28;;
48550;SDS011;34397;51.176;6.738;2022-10-16T01:47:16;3.90;;;1.80;;
48550;SDS011;34397;51.176;6.738;2022-10-16T01:49:51;4.78;;;1.90;;
48550;SDS011;34397;51.176;6.738;2022-10-16T01:52:25;3.78;;;1.92;;
48550;SDS011;34397;51.176;6.738;2022-10-16T01:54:59;4.93;;;1.98;;
48550;SDS011;34397;51.176;6.738;2022-10-16T01:57:35;4.05;;;2.00;;
48550;SDS011;34397;51.176;6.738;2022-10-16T02:00:13;3.92;;;1.95;;
48550;SDS011;34397;51.176;6.738;2022-10-16T02:02:48;4.22;;;2.20;;
48550;SDS011;34397;51.176;6.738;2022-10-16T02:05:24;5.10;;;2.50;;
48550;SDS011;34397;51.176;6.738;2022-10-16T02:07:59;3.33;;;1.60;;
48550;SDS011;34397;51.176;6.738;2022-10-16T02:10:31;4.20;;;2.03;;
48550;SDS011;34397;51.176;6.738;2022-10-16T02:13:06;4.50;;;1.70;;
48550;SDS011;34397;51.176;6.738;2022-10-16T02:15:43;4.85;;;1.83;;
48550;SDS011;34397;51.176;6.738;2022-10-16T02:18:15;3.03;;;1.60;;
48550;SDS011;34397;51.176;6.738;2022-10-16T02:20:49;4.88;;;2.03;;
48550;SDS011;34397;51.176;6.738;2022-10-16T02:23:25;3.55;;;1.67;;
48550;SDS011;34397;51.176;6.738;2022-10-16T02:26:04;2.97;;;1.70;;
48550;SDS011;34397;51.176;6.738;2022-10-16T02:28:41;5.20;;;1.80;;
48550;SDS011;34397;51.176;6.738;2022-10-16T02:31:18;2.88;;;1.60;;
48550;SDS011;34397;51.176;6.738;2022-10-16T02:33:57;2.85;;;1.75;;
48550;SDS011;34397;51.176;6.738;2022-10-16T02:36:31;4.43;;;1.80;;
48550;SDS011;34397;51.176;6.738;2022-10-16T02:39:04;3.40;;;1.63;;
48550;SDS011;34397;51.176;6.738;2022-10-16T02:41:37;3.35;;;1.50;;
48550;SDS011;34397;51.176;6.738;2022-10-16T02:44:09;2.80;;;1.70;;
48550;SDS011;34397;51.176;6.738;2022-10-16T02:46:43;3.08;;;1.50;;
48550;SDS011;34397;51.176;6.738;2022-10-16T02:51:46;4.32;;;1.58;;
48550;SDS011;34397;51.176;6.738;2022-10-16T02:54:18;2.97;;;1.50;;
48550;SDS011;34397;51.176;6.738;2022-10-16T02:56:50;3.35;;;1.50;;
48550;SDS011;34397;51.176;6.738;2022-10-16T02:59:22;3.67;;;1.70;;
48550;SDS011;34397;51.176;6.738;2022-10-16T03:01:55;2.05;;;1.30;;
48550;SDS011;34397;51.176;6.738;2022-10-16T03:06:59;2.92;;;1.73;;
48550;SDS011;34397;51.176;6.738;2022-10-16T03:09:31;2.78;;;1.40;;
48550;SDS011;34397;51.176;6.738;2022-10-16T03:12:03;2.30;;;1.40;;
48550;SDS011;34397;51.176;6.738;2022-10-16T03:14:35;2.93;;;1.60;;
48550;SDS011;34397;51.176;6.738;2022-10-16T03:17:09;5.30;;;1.70;;
48550;SDS011;34397;51.176;6.738;2022-10-16T03:19:41;2.70;;;1.50;;
48550;SDS011;34397;51.176;6.738;2022-10-16T03:22:12;2.38;;;1.52;;
48550;SDS011;34397;51.176;6.738;2022-10-16T03:24:44;3.25;;;1.70;;
48550;SDS011;34397;51.176;6.738;2022-10-16T03:27:16;3.20;;;1.70;;
48550;SDS011;34397;51.176;6.738;2022-10-16T03:29:48;3.10;;;1.52;;
48550;SDS011;34397;51.176;6.738;2022-10-16T03:32:21;2.85;;;1.60;;
48550;SDS011;34397;51.176;6.738;2022-10-16T03:34:54;3.05;;;1.58;;
48550;SDS011;34397;51.176;6.738;2022-10-16T03:37:27;3.40;;;1.70;;
48550;SDS011;34397;51.176;6.738;2022-10-16T03:39:58;2.78;;;1.60;;
48550;SDS011;34397;51.176;6.738;2022-10-16T03:42:30;2.33;;;1.38;;
48550;SDS011;34397;51.176;6.738;2022-10-16T03:45:02;3.08;;;1.48;;
48550;SDS011;34397;51.176;6.738;2022-10-16T03:47:37;3.65;;;1.40;;
48550;SDS011;34397;51.176;6.738;2022-10-16T03:50:09;5.53;;;1.77;;
48550;SDS011;34397;51.176;6.738;2022-10-16T03:52:40;4.53;;;1.60;;
48550;SDS011;34397;51.176;6.738;2022-10-16T03:55:12;2.95;;;1.58;;
48550;SDS011;34397;51.176;6.738;2022-10-16T03:57:44;3.03;;;1.55;;
48550;SDS011;34397;51.176;6.738;2022-10-16T04:00:16;2.95;;;1.60;;
48550;SDS011;34397;51.176;6.738;2022-10-16T04:02:49;2.22;;;1.50;;
48550;SDS011;34397;51.176;6.738;2022-10-16T04:05:21;2.75;;;1.40;;
48550;SDS011;34397;51.176;6.738;2022-10-16T04:07:53;3.63;;;1.60;;
48550;SDS011;34397;51.176;6.738;2022-10-16T04:10:26;3.13;;;1.40;;
48550;SDS011;34397;51.176;6.738;2022-10-16T04:12:58;3.25;;;1.50;;
48550;SDS011;34397;51.176;6.738;2022-10-16T04:15:29;3.72;;;1.70;;
48550;SDS011;34397;51.176;6.738;2022-10-16T04:18:03;3.63;;;1.50;;
48550;SDS011;34397;51.176;6.738;2022-10-16T04:20:35;2.17;;;1.35;;
48550;SDS011;34397;51.176;6.738;2022-10-16T04:23:07;3.55;;;1.63;;
48550;SDS011;34397;51.176;6.738;2022-10-16T04:25:39;3.13;;;1.50;;
48550;SDS011;34397;51.176;6.738;2022-10-16T04:28:11;2.78;;;1.40;;
48550;SDS011;34397;51.176;6.738;2022-10-16T04:30:42;4.65;;;1.50;;
48550;SDS011;34397;51.176;6.738;2022-10-16T04:33:16;3.90;;;1.60;;
48550;SDS011;34397;51.176;6.738;2022-10-16T04:38:19;3.53;;;1.60;;
48550;SDS011;34397;51.176;6.738;2022-10-16T04:40:51;4.75;;;1.88;;
48550;SDS011;34397;51.176;6.738;2022-10-16T04:43:23;3.40;;;1.60;;
48550;SDS011;34397;51.176;6.738;2022-10-16T04:45:55;2.78;;;1.55;;
48550;SDS011;34397;51.176;6.738;2022-10-16T04:48:28;3.42;;;1.63;;
48550;SDS011;34397;51.176;6.738;2022-10-16T04:51:00;4.10;;;1.85;;
48550;SDS011;34397;51.176;6.738;2022-10-16T04:53:32;4.20;;;1.63;;
48550;SDS011;34397;51.176;6.738;2022-10-16T04:56:04;2.95;;;1.58;;
48550;SDS011;34397;51.176;6.738;2022-10-16T04:58:36;4.03;;;1.70;;
48550;SDS011;34397;51.176;6.738;2022-10-16T05:01:08;3.63;;;1.60;;
48550;SDS011;34397;51.176;6.738;2022-10-16T05:03:41;2.70;;;1.55;;
48550;SDS011;34397;51.176;6.738;2022-10-16T05:08:45;3.50;;;1.50;;
48550;SDS011;34397;51.176;6.738;2022-10-16T05:11:17;4.72;;;1.80;;
48550;SDS011;34397;51.176;6.738;2022-10-16T05:13:48;2.70;;;1.65;;
48550;SDS011;34397;51.176;6.738;2022-10-16T05:16:20;3.28;;;1.52;;
48550;SDS011;34397;51.176;6.738;2022-10-16T05:18:53;2.35;;;1.50;;
48550;SDS011;34397;51.176;6.738;2022-10-16T05:21:25;6.68;;;1.42;;
48550;SDS011;34397;51.176;6.738;2022-10-16T05:23:57;3.58;;;1.60;;
48550;SDS011;34397;51.176;6.738;2022-10-16T05:26:29;6.07;;;1.75;;
48550;SDS011;34397;51.176;6.738;2022-10-16T05:29:01;3.38;;;1.60;;
48550;SDS011;34397;51.176;6.738;2022-10-16T05:31:33;2.83;;;1.40;;
48550;SDS011;34397;51.176;6.738;2022-10-16T05:34:06;2.20;;;1.38;;
48550;SDS011;34397;51.176;6.738;2022-10-16T05:39:10;2.38;;;1.25;;
48550;SDS011;34397;51.176;6.738;2022-10-16T05:41:43;2.85;;;1.35;;
48550;SDS011;34397;51.176;6.738;2022-10-16T05:44:15;2.78;;;1.50;;
48550;SDS011;34397;51.176;6.738;2022-10-16T05:46:47;2.83;;;1.70;;
48550;SDS011;34397;51.176;6.738;2022-10-16T05:49:20;4.75;;;1.33;;
48550;SDS011;34397;51.176;6.738;2022-10-16T05:54:24;2.13;;;1.20;;
48550;SDS011;34397;51.176;6.738;2022-10-16T05:56:56;1.77;;;1.13;;
48550;SDS011;34397;51.176;6.738;2022-10-16T05:59:27;2.47;;;1.38;;
48550;SDS011;34397;51.176;6.738;2022-10-16T06:01:59;2.17;;;1.40;;
48550;SDS011;34397;51.176;6.738;2022-10-16T06:04:32;3.05;;;1.67;;
48550;SDS011;34397;51.176;6.738;2022-10-16T06:07:04;3.85;;;1.50;;
48550;SDS011;34397;51.176;6.738;2022-10-16T06:09:36;2.47;;;1.30;;
48550;SDS011;34397;51.176;6.738;2022-10-16T06:12:08;3.15;;;1.35;;
48550;SDS011;34397;51.176;6.738;2022-10-16T06:14:40;3.38;;;1.52;;
48550;SDS011;34397;51.176;6.738;2022-10-16T06:17:11;2.75;;;1.50;;
48550;SDS011;34397;51.176;6.738;2022-10-16T06:19:45;2.60;;;1.50;;
48550;SDS011;34397;51.176;6.738;2022-10-16T06:22:17;2.38;;;1.40;;
48550;SDS011;34397;51.176;6.738;2022-10-16T06:24:48;3.60;;;1.60;;
48550;SDS011;34397;51.176;6.738;2022-10-16T06:27:20;5.32;;;1.40;;
48550;SDS011;34397;51.176;6.738;2022-10-16T06:29:52;4.85;;;1.75;;
48550;SDS011;34397;51.176;6.738;2022-10-16T06:32:24;2.90;;;1.42;;
48550;SDS011;34397;51.176;6.738;2022-10-16T06:34:57;1.67;;;1.23;;
48550;SDS011;34397;51.176;6.738;2022-10-16T06:40:01;2.85;;;1.40;;
48550;SDS011;34397;51.176;6.738;2022-10-16T06:42:34;3.70;;;1.40;;
48550;SDS011;34397;51.176;6.738;2022-10-16T06:45:06;4.03;;;1.30;;
48550;SDS011;34397;51.176;6.738;2022-10-16T06:47:39;2.58;;;1.42;;
48550;SDS011;34397;51.176;6.738;2022-10-16T06:50:12;3.67;;;1.73;;
48550;SDS011;34397;51.176;6.738;2022-10-16T06:52:44;2.83;;;1.50;;
48550;SDS011;34397;51.176;6.738;2022-10-16T06:55:16;4.03;;;1.40;;
48550;SDS011;34397;51.176;6.738;2022-10-16T06:57:48;3.08;;;1.60;;
48550;SDS011;34397;51.176;6.738;2022-10-16T07:00:20;3.20;;;1.50;;
48550;SDS011;34397;51.176;6.738;2022-10-16T07:02:51;4.03;;;1.70;;
48550;SDS011;34397;51.176;6.738;2022-10-16T07:05:25;2.88;;;1.48;;
48550;SDS011;34397;51.176;6.738;2022-10-16T07:10:28;7.13;;;2.17;;
48550;SDS011;34397;51.176;6.738;2022-10-16T07:13:00;3.42;;;1.80;;
48550;SDS011;34397;51.176;6.738;2022-10-16T07:15:32;4.60;;;1.80;;
48550;SDS011;34397;51.176;6.738;2022-10-16T07:18:04;4.65;;;1.90;;
48550;SDS011;34397;51.176;6.738;2022-10-16T07:20:37;3.72;;;2.00;;
48550;SDS011;34397;51.176;6.738;2022-10-16T07:25:40;3.53;;;1.70;;
48550;SDS011;34397;51.176;6.738;2022-10-16T07:28:12;4.55;;;1.70;;
48550;SDS011;34397;51.176;6.738;2022-10-16T07:30:44;4.32;;;1.65;;
48550;SDS011;34397;51.176;6.738;2022-10-16T07:33:16;4.40;;;2.00;;
48550;SDS011;34397;51.176;6.738;2022-10-16T07:35:50;3.85;;;1.77;;
48550;SDS011;34397;51.176;6.738;2022-10-16T07:38:22;5.20;;;1.90;;
48550;SDS011;34397;51.176;6.738;2022-10-16T07:40:58;3.13;;;1.60;;
48550;SDS011;34397;51.176;6.738;2022-10-16T07:43:30;5.22;;;1.60;;
48550;SDS011;34397;51.176;6.738;2022-10-16T07:46:03;4.38;;;1.63;;
48550;SDS011;34397;51.176;6.738;2022-10-16T07:48:35;3.63;;;1.73;;
48550;SDS011;34397;51.176;6.738;2022-10-16T07:51:08;3.42;;;1.70;;
48550;SDS011;34397;51.176;6.738;2022-10-16T07:53:40;3.15;;;1.88;;
48550;SDS011;34397;51.176;6.738;2022-10-16T07:56:12;5.20;;;2.10;;
48550;SDS011;34397;51.176;6.738;2022-10-16T07:58:45;2.85;;;1.60;;
48550;SDS011;34397;51.176;6.738;2022-10-16T08:01:19;3.25;;;1.60;;
48550;SDS011;34397;51.176;6.738;2022-10-16T08:03:52;3.87;;;1.80;;
48550;SDS011;34397;51.176;6.738;2022-10-16T08:06:25;3.13;;;1.67;;
48550;SDS011;34397;51.176;6.738;2022-10-16T08:11:29;4.80;;;1.80;;
48550;SDS011;34397;51.176;6.738;2022-10-16T08:14:01;3.00;;;1.55;;
48550;SDS011;34397;51.176;6.738;2022-10-16T08:16:33;4.03;;;1.90;;
48550;SDS011;34397;51.176;6.738;2022-10-16T08:19:05;2.50;;;1.60;;
48550;SDS011;34397;51.176;6.738;2022-10-16T08:21:38;4.38;;;1.80;;
48550;SDS011;34397;51.176;6.738;2022-10-16T08:26:42;3.38;;;1.73;;
48550;SDS011;34397;51.176;6.738;2022-10-16T08:29:14;5.03;;;1.80;;
48550;SDS011;34397;51.176;6.738;2022-10-16T08:31:46;3.88;;;1.70;;
48550;SDS011;34397;51.176;6.738;2022-10-16T08:34:17;3.28;;;1.55;;
48550;SDS011;34397;51.176;6.738;2022-10-16T08:36:52;3.88;;;1.70;;
48550;SDS011;34397;51.176;6.738;2022-10-16T08:39:24;3.08;;;1.60;;
48550;SDS011;34397;51.176;6.738;2022-10-16T08:45:14;3.65;;;1.63;;
48550;SDS011;34397;51.176;6.738;2022-10-16T08:48:13;4.57;;;1.73;;
48550;SDS011;34397;51.176;6.738;2022-10-16T08:50:53;3.67;;;1.60;;
48550;SDS011;34397;51.176;6.738;2022-10-16T08:53:29;3.72;;;1.40;;
48550;SDS011;34397;51.176;6.738;2022-10-16T08:56:07;3.67;;;1.60;;
48550;SDS011;34397;51.176;6.738;2022-10-16T08:58:39;4.43;;;1.40;;
48550;SDS011;34397;51.176;6.738;2022-10-16T09:01:12;3.65;;;1.60;;
48550;SDS011;34397;51.176;6.738;2022-10-16T09:03:50;2.78;;;1.17;;
48550;SDS011;34397;51.176;6.738;2022-10-16T09:06:44;3.95;;;1.50;;
48550;SDS011;34397;51.176;6.738;2022-10-16T09:09:29;3.80;;;1.20;;
48550;SDS011;34397;51.176;6.738;2022-10-16T09:12:18;3.70;;;1.20;;
48550;SDS011;34397;51.176;6.738;2022-10-16T09:14:59;2.85;;;1.33;;
48550;SDS011;34397;51.176;6.738;2022-10-16T09:17:45;4.07;;;1.13;;
48550;SDS011;34397;51.176;6.738;2022-10-16T09:20:28;2.25;;;1.17;;
48550;SDS011;34397;51.176;6.738;2022-10-16T09:23:14;2.47;;;1.17;;
48550;SDS011;34397;51.176;6.738;2022-10-16T09:25:50;3.10;;;1.00;;
48550;SDS011;34397;51.176;6.738;2022-10-16T09:28:23;4.43;;;1.00;;
48550;SDS011;34397;51.176;6.738;2022-10-16T09:30:55;2.08;;;0.90;;
48550;SDS011;34397;51.176;6.738;2022-10-16T09:33:28;3.33;;;1.00;;
48550;SDS011;34397;51.176;6.738;2022-10-16T09:36:04;5.55;;;0.90;;
48550;SDS011;34397;51.176;6.738;2022-10-16T09:38:37;3.58;;;1.30;;
48550;SDS011;34397;51.176;6.738;2022-10-16T09:41:14;4.13;;;1.17;;
48550;SDS011;34397;51.176;6.738;2022-10-16T09:43:49;1.95;;;0.90;;
48550;SDS011;34397;51.176;6.738;2022-10-16T09:46:27;3.30;;;0.80;;
48550;SDS011;34397;51.176;6.738;2022-10-16T09:49:01;3.25;;;1.17;;
48550;SDS011;34397;51.176;6.738;2022-10-16T09:51:36;2.35;;;1.02;;
48550;SDS011;34397;51.176;6.738;2022-10-16T09:54:13;2.78;;;1.02;;
48550;SDS011;34397;51.176;6.738;2022-10-16T09:56:48;4.20;;;0.82;;
48550;SDS011;34397;51.176;6.738;2022-10-16T09:59:22;6.20;;;1.00;;
48550;SDS011;34397;51.176;6.738;2022-10-16T10:01:56;4.57;;;1.08;;
48550;SDS011;34397;51.176;6.738;2022-10-16T10:04:37;2.40;;;0.90;;
48550;SDS011;34397;51.176;6.738;2022-10-16T10:07:16;3.03;;;0.80;;
48550;SDS011;34397;51.176;6.738;2022-10-16T10:09:55;2.13;;;0.75;;
48550;SDS011;34397;51.176;6.738;2022-10-16T10:12:30;2.22;;;0.85;;
48550;SDS011;34397;51.176;6.738;2022-10-16T10:15:06;2.65;;;0.98;;
48550;SDS011;34397;51.176;6.738;2022-10-16T10:17:45;1.75;;;0.80;;
48550;SDS011;34397;51.176;6.738;2022-10-16T10:20:23;2.83;;;0.77;;
48550;SDS011;34397;51.176;6.738;2022-10-16T10:22:58;4.03;;;0.70;;
48550;SDS011;34397;51.176;6.738;2022-10-16T10:25:34;3.43;;;0.87;;
48550;SDS011;34397;51.176;6.738;2022-10-16T10:31:21;3.40;;;0.90;;
48550;SDS011;34397;51.176;6.738;2022-10-16T10:34:00;1.40;;;0.60;;
48550;SDS011;34397;51.176;6.738;2022-10-16T10:36:49;1.88;;;0.60;;
48550;SDS011;34397;51.176;6.738;2022-10-16T10:39:32;2.00;;;0.63;;
48550;SDS011;34397;51.176;6.738;2022-10-16T10:42:15;3.10;;;0.80;;
48550;SDS011;34397;51.176;6.738;2022-10-16T10:47:47;3.25;;;0.80;;
48550;SDS011;34397;51.176;6.738;2022-10-16T10:50:32;2.35;;;0.70;;
48550;SDS011;34397;51.176;6.738;2022-10-16T10:53:14;2.28;;;0.70;;
48550;SDS011;34397;51.176;6.738;2022-10-16T10:56:00;2.00;;;0.70;;
48550;SDS011;34397;51.176;6.738;2022-10-16T10:58:54;2.65;;;1.00;;
48550;SDS011;34397;51.176;6.738;2022-10-16T11:01:50;1.73;;;0.60;;
48550;SDS011;34397;51.176;6.738;2022-10-16T11:07:25;3.50;;;0.88;;
48550;SDS011;34397;51.176;6.738;2022-10-16T11:10:02;2.40;;;0.80;;
48550;SDS011;34397;51.176;6.738;2022-10-16T11:12:44;2.28;;;0.70;;
48550;SDS011;34397;51.176;6.738;2022-10-16T11:15:19;1.90;;;0.73;;
48550;SDS011;34397;51.176;6.738;2022-10-16T11:17:59;2.25;;;0.68;;
48550;SDS011;34397;51.176;6.738;2022-10-16T11:20:37;1.70;;;0.70;;
48550;SDS011;34397;51.176;6.738;2022-10-16T11:23:18;3.22;;;0.90;;
48550;SDS011;34397;51.176;6.738;2022-10-16T11:25:57;1.63;;;0.60;;
48550;SDS011;34397;51.176;6.738;2022-10-16T11:28:33;1.77;;;0.60;;
48550;SDS011;34397;51.176;6.738;2022-10-16T11:31:10;1.73;;;0.50;;
48550;SDS011;34397;51.176;6.738;2022-10-16T11:33:49;2.20;;;0.75;;
48550;SDS011;34397;51.176;6.738;2022-10-16T11:36:27;1.67;;;0.75;;
48550;SDS011;34397;51.176;6.738;2022-10-16T11:39:10;2.05;;;0.50;;
48550;SDS011;34397;51.176;6.738;2022-10-16T11:41:51;2.40;;;0.73;;
48550;SDS011;34397;51.176;6.738;2022-10-16T11:44:35;3.10;;;0.70;;
48550;SDS011;34397;51.176;6.738;2022-10-16T11:47:21;1.08;;;0.60;;
48550;SDS011;34397;51.176;6.738;2022-10-16T11:50:01;1.20;;;0.50;;
48550;SDS011;34397;51.176;6.738;2022-10-16T11:52:39;2.45;;;0.90;;
48550;SDS011;34397;51.176;6.738;2022-10-16T11:55:16;0.70;;;0.60;;
48550;SDS011;34397;51.176;6.738;2022-10-16T11:57:52;3.28;;;0.57;;
48550;SDS011;34397;51.176;6.738;2022-10-16T12:00:30;1.50;;;0.68;;
48550;SDS011;34397;51.176;6.738;2022-10-16T12:03:11;3.10;;;0.80;;
48550;SDS011;34397;51.176;6.738;2022-10-16T12:05:58;2.90;;;0.70;;
48550;SDS011;34397;51.176;6.738;2022-10-16T12:08:48;2.70;;;0.90;;
48550;SDS011;34397;51.176;6.738;2022-10-16T12:11:22;2.70;;;0.70;;
48550;SDS011;34397;51.176;6.738;2022-10-16T12:14:05;2.03;;;0.60;;
48550;SDS011;34397;51.176;6.738;2022-10-16T12:19:58;1.40;;;0.70;;
48550;SDS011;34397;51.176;6.738;2022-10-16T12:22:33;1.08;;;0.50;;
48550;SDS011;34397;51.176;6.738;2022-10-16T12:25:05;1.58;;;0.63;;
48550;SDS011;34397;51.176;6.738;2022-10-16T12:27:58;1.80;;;0.70;;
48550;SDS011;34397;51.176;6.738;2022-10-16T12:30:33;1.95;;;0.60;;
48550;SDS011;34397;51.176;6.738;2022-10-16T12:33:20;1.63;;;0.50;;
48550;SDS011;34397;51.176;6.738;2022-10-16T12:35:56;2.33;;;0.70;;
48550;SDS011;34397;51.176;6.738;2022-10-16T12:38:32;1.15;;;0.63;;
48550;SDS011;34397;51.176;6.738;2022-10-16T12:41:24;1.58;;;0.60;;
48550;SDS011;34397;51.176;6.738;2022-10-16T12:43:58;1.63;;;0.50;;
48550;SDS011;34397;51.176;6.738;2022-10-16T12:46:35;0.95;;;0.73;;
48550;SDS011;34397;51.176;6.738;2022-10-16T12:49:21;1.30;;;0.68;;
48550;SDS011;34397;51.176;6.738;2022-10-16T12:52:01;3.53;;;0.60;;
48550;SDS011;34397;51.176;6.738;2022-10-16T12:54:36;3.35;;;0.75;;
48550;SDS011;34397;51.176;6.738;2022-10-16T12:57:20;1.48;;;0.70;;
48550;SDS011;34397;51.176;6.738;2022-10-16T13:00:09;2.50;;;0.65;;
48550;SDS011;34397;51.176;6.738;2022-10-16T13:06:09;1.80;;;0.60;;
48550;SDS011;34397;51.176;6.738;2022-10-16T13:08:56;1.20;;;0.50;;
48550;SDS011;34397;51.176;6.738;2022-10-16T13:15:04;1.77;;;0.70;;
48550;SDS011;34397;51.176;6.738;2022-10-16T13:17:59;1.30;;;0.70;;
48550;SDS011;34397;51.176;6.738;2022-10-16T13:23:27;1.10;;;0.60;;
48550;SDS011;34397;51.176;6.738;2022-10-16T13:26:09;2.33;;;0.70;;
48550;SDS011;34397;51.176;6.738;2022-10-16T13:28:50;2.38;;;0.70;;
48550;SDS011;34397;51.176;6.738;2022-10-16T13:31:22;2.50;;;0.73;;
48550;SDS011;34397;51.176;6.738;2022-10-16T13:33:56;1.60;;;0.60;;
48550;SDS011;34397;51.176;6.738;2022-10-16T13:36:30;2.35;;;0.88;;
48550;SDS011;34397;51.176;6.738;2022-10-16T13:39:15;1.45;;;0.70;;
48550;SDS011;34397;51.176;6.738;2022-10-16T13:42:02;2.00;;;0.68;;
48550;SDS011;34397;51.176;6.738;2022-10-16T13:44:40;2.33;;;0.60;;
48550;SDS011;34397;51.176;6.738;2022-10-16T13:47:15;2.13;;;1.10;;
48550;SDS011;34397;51.176;6.738;2022-10-16T13:49:58;2.47;;;1.00;;
48550;SDS011;34397;51.176;6.738;2022-10-16T13:55:04;2.70;;;0.90;;
48550;SDS011;34397;51.176;6.738;2022-10-16T13:57:41;2.05;;;0.60;;
48550;SDS011;34397;51.176;6.738;2022-10-16T14:02:54;1.27;;;0.60;;
48550;SDS011;34397;51.176;6.738;2022-10-16T14:05:30;2.08;;;0.75;;
48550;SDS011;34397;51.176;6.738;2022-10-16T14:10:35;2.65;;;0.90;;
48550;SDS011;34397;51.176;6.738;2022-10-16T14:13:07;3.73;;;1.00;;
48550;SDS011;34397;51.176;6.738;2022-10-16T14:15:47;1.25;;;0.70;;
48550;SDS011;34397;51.176;6.738;2022-10-16T14:18:23;1.10;;;0.70;;
48550;SDS011;34397;51.176;6.738;2022-10-16T14:21:02;2.67;;;0.80;;
48550;SDS011;34397;51.176;6.738;2022-10-16T14:23:36;1.92;;;0.80;;
48550;SDS011;34397;51.176;6.738;2022-10-16T14:26:12;2.03;;;0.85;;
48550;SDS011;34397;51.176;6.738;2022-10-16T14:28:47;2.83;;;0.88;;
48550;SDS011;34397;51.176;6.738;2022-10-16T14:31:26;2.20;;;1.15;;
48550;SDS011;34397;51.176;6.738;2022-10-16T14:34:00;2.85;;;0.98;;
48550;SDS011;34397;51.176;6.738;2022-10-16T14:36:33;2.97;;;0.80;;
48550;SDS011;34397;51.176;6.738;2022-10-16T14:39:05;2.05;;;1.00;;
48550;SDS011;34397;51.176;6.738;2022-10-16T14:41:49;5.93;;;1.20;;
48550;SDS011;34397;51.176;6.738;2022-10-16T14:44:23;1.67;;;1.00;;
48550;SDS011;34397;51.176;6.738;2022-10-16T14:47:08;2.33;;;0.90;;
48550;SDS011;34397;51.176;6.738;2022-10-16T14:49:45;2.60;;;0.93;;
48550;SDS011;34397;51.176;6.738;2022-10-16T14:52:16;6.30;;;1.42;;
48550;SDS011;34397;51.176;6.738;2022-10-16T14:54:49;2.80;;;1.00;;
48550;SDS011;34397;51.176;6.738;2022-10-16T14:57:26;2.60;;;0.80;;
48550;SDS011;34397;51.176;6.738;2022-10-16T15:00:03;2.03;;;0.80;;
48550;SDS011;34397;51.176;6.738;2022-10-16T15:02:42;2.63;;;1.00;;
48550;SDS011;34397;51.176;6.738;2022-10-16T15:05:16;3.70;;;1.20;;
48550;SDS011;34397;51.176;6.738;2022-10-16T15:07:52;1.98;;;0.70;;
48550;SDS011;34397;51.176;6.738;2022-10-16T15:10:26;2.50;;;0.90;;
48550;SDS011;34397;51.176;6.738;2022-10-16T15:12:59;3.42;;;1.08;;
48550;SDS011;34397;51.176;6.738;2022-10-16T15:15:35;3.42;;;1.05;;
48550;SDS011;34397;51.176;6.738;2022-10-16T15:18:10;4.30;;;1.35;;
48550;SDS011;34397;51.176;6.738;2022-10-16T15:20:44;4.93;;;1.27;;
48550;SDS011;34397;51.176;6.738;2022-10-16T15:23:17;3.83;;;1.30;;
48550;SDS011;34397;51.176;6.738;2022-10-16T15:25:53;2.78;;;1.00;;
48550;SDS011;34397;51.176;6.738;2022-10-16T15:28:26;5.00;;;1.25;;
48550;SDS011;34397;51.176;6.738;2022-10-16T15:30:58;3.95;;;1.17;;
48550;SDS011;34397;51.176;6.738;2022-10-16T15:33:31;2.75;;;1.00;;
48550;SDS011;34397;51.176;6.738;2022-10-16T15:36:05;5.15;;;1.45;;
48550;SDS011;34397;51.176;6.738;2022-10-16T15:38:37;3.83;;;1.08;;
48550;SDS011;34397;51.176;6.738;2022-10-16T15:41:09;1.90;;;1.00;;
48550;SDS011;34397;51.176;6.738;2022-10-16T15:43:41;4.17;;;0.93;;
48550;SDS011;34397;51.176;6.738;2022-10-16T15:46:13;2.67;;;1.00;;
48550;SDS011;34397;51.176;6.738;2022-10-16T15:48:47;1.15;;;0.70;;
48550;SDS011;34397;51.176;6.738;2022-10-16T15:51:20;2.25;;;0.80;;
48550;SDS011;34397;51.176;6.738;2022-10-16T15:53:52;2.50;;;0.93;;
48550;SDS011;34397;51.176;6.738;2022-10-16T15:56:24;5.65;;;1.10;;
48550;SDS011;34397;51.176;6.738;2022-10-16T15:58:56;3.58;;;1.17;;
48550;SDS011;34397;51.176;6.738;2022-10-16T16:01:55;2.50;;;0.90;;
48550;SDS011;34397;51.176;6.738;2022-10-16T16:04:42;2.15;;;1.00;;
48550;SDS011;34397;51.176;6.738;2022-10-16T16:07:29;4.32;;;1.20;;
48550;SDS011;34397;51.176;6.738;2022-10-16T16:10:25;4.40;;;1.25;;
48550;SDS011;34397;51.176;6.738;2022-10-16T16:13:06;4.93;;;1.23;;
48550;SDS011;34397;51.176;6.738;2022-10-16T16:16:04;2.92;;;1.10;;
48550;SDS011;34397;51.176;6.738;2022-10-16T16:19:04;1.58;;;1.08;;
48550;SDS011;34397;51.176;6.738;2022-10-16T16:22:00;5.80;;;1.10;;
48550;SDS011;34397;51.176;6.738;2022-10-16T16:24:49;2.92;;;1.30;;
48550;SDS011;34397;51.176;6.738;2022-10-16T16:27:30;3.50;;;1.00;;
48550;SDS011;34397;51.176;6.738;2022-10-16T16:30:25;2.72;;;0.90;;
48550;SDS011;34397;51.176;6.738;2022-10-16T16:33:23;3.60;;;1.40;;
48550;SDS011;34397;51.176;6.738;2022-10-16T16:36:03;1.92;;;1.00;;
48550;SDS011;34397;51.176;6.738;2022-10-16T16:39:03;3.15;;;1.30;;
48550;SDS011;34397;51.176;6.738;2022-10-16T16:41:58;3.15;;;1.63;;
48550;SDS011;34397;51.176;6.738;2022-10-16T16:44:32;2.92;;;1.08;;
48550;SDS011;34397;51.176;6.738;2022-10-16T16:47:06;2.42;;;0.95;;
48550;SDS011;34397;51.176;6.738;2022-10-16T16:49:37;1.95;;;0.95;;
48550;SDS011;34397;51.176;6.738;2022-10-16T16:52:10;4.15;;;1.20;;
48550;SDS011;34397;51.176;6.738;2022-10-16T16:54:43;3.33;;;1.33;;